Greenville, MS (38703)

5:55 AM CST on February 11, 2016 (GMT -0600)
Q102 Downtown Greenville | | Change Station
CLOSE
Current Station
Personal Weather Station
Location: Greenville, MS
Elevation: 141 ft
Nearby Weather Stations

Elev 141 ft 33.41 °N, 91.06 °W | Updated 16 seconds ago

Clear
Clear
46.4 °F
Feels Like 46 °F
N
2.0
Wind Variable Wind from West
Gusts 2.7 mph

Today
High -- | Low -- °F
--% Chance of Precip.
Yesterday
High -- | Low -- °F
Precip. -- in
Pressure 30.09 in
Visibility 10.0 miles
Clouds Clear
Windchill 46 °F
Dew Point 40 °F
Humidity 79%
Rainfall 0.00 in
Snow Depth Not available.
6:52 AM 5:44 PM
Waxing Crescent, 11% visible
METAR KGLH 111153Z AUTO 00000KT 10SM CLR 03/00 A3007 RMK AO2 SLP190 T00330000 10078 20028 53013
Pressure 30.09 in
Visibility 10.0 miles
Clouds Clear
Windchill 46 °F
Dew Point 40 °F
Humidity 79%
Rainfall 0.00 in
Snow Depth Not available.
6:52 AM 5:44 PM
Waxing Crescent, 11% visible
METAR KGLH 111153Z AUTO 00000KT 10SM CLR 03/00 A3007 RMK AO2 SLP190 T00330000 10078 20028 53013

10-Day Weather Forecast

Almanac

Astronomy

Feb. 11, 2016 Rise Set
Actual Time
Civil Twilight
Nautical Twilight
Astronomical Twilight
Moon
Length of Visible Light
Length of Day
Tomorrow will be .
, % of the Moon is Illuminated

Today's Extremes

State Highs State Lows

Community

WunderPhotos

Upload Photos

1,892,030 photos uploaded!

WunderBlog® & News

Nearby

Air Quality

  Air Quality AQ Index Pollutant
Not available.

Snow Depth

Station Depth Elevation

Earthquake Activity

City Distance Mag. Time & Date
Minimum magnitude displayed is 2.5.

Coastal Water Temperatures

Place Temperature

Stations

Nearby Weather Stations

Station Location Temp. Windchill Dew Point Humidity Wind Precip. Elev Updated Type
                   

Watches & Warnings

There are currently no watches in effect.